createdAt,value
2019-04-14T00:00:32.009Z,20.6
2019-04-14T00:01:20.074Z,20.6
2019-04-14T00:02:08.505Z,20.4
2019-04-14T00:03:00.694Z,20.4
2019-04-14T00:03:48.583Z,20.4
2019-04-14T00:04:42.211Z,20.3
2019-04-14T00:05:39.153Z,20.3
2019-04-14T00:06:22.881Z,20.2
2019-04-14T00:07:14.361Z,20.1
2019-04-14T00:08:00.791Z,20.1
2019-04-14T00:08:52.434Z,20.1
2019-04-14T00:09:41.253Z,20
2019-04-14T00:10:33.808Z,19.9
2019-04-14T00:11:23.309Z,19.9
2019-04-14T00:12:21.323Z,19.9
2019-04-14T00:13:04.506Z,19.8
2019-04-14T00:13:55.020Z,19.8
2019-04-14T00:14:44.587Z,19.7
2019-04-14T00:16:07.613Z,19.6
2019-04-14T00:16:27.493Z,19.6
2019-04-14T00:17:19.403Z,19.6
2019-04-14T00:18:09.664Z,19.5
2019-04-14T00:18:58.133Z,19.5
2019-04-14T00:19:48.280Z,19.4
2019-04-14T00:20:36.354Z,19.5
2019-04-14T00:21:28.690Z,20
2019-04-14T00:22:18.853Z,20.9
2019-04-14T00:23:08.661Z,21.6
2019-04-14T00:23:58.810Z,22.1
2019-04-14T00:24:47.407Z,22.5
2019-04-14T00:25:39.582Z,22.8
2019-04-14T00:26:29.124Z,23.1
2019-04-14T00:27:21.141Z,23.3
2019-04-14T00:28:09.410Z,23.6
2019-04-14T00:29:00.031Z,23.8
2019-04-14T00:29:48.957Z,23.9
2019-04-14T00:30:40.973Z,24.1
2019-04-14T00:31:30.559Z,24.3
2019-04-14T00:32:18.812Z,24.4
2019-04-14T00:33:08.924Z,24.6
2019-04-14T00:34:00.593Z,24.3
2019-04-14T00:34:49.074Z,23.7
2019-04-14T00:35:38.553Z,23.2
2019-04-14T00:36:28.824Z,22.8
2019-04-14T00:37:20.475Z,22.5
2019-04-14T00:38:11.576Z,22.3
2019-04-14T00:38:58.997Z,22.1
2019-04-14T00:39:49.200Z,21.9
2019-04-14T00:40:45.403Z,21.8
2019-04-14T00:42:08.526Z,21.7
2019-04-14T00:42:29.828Z,21.5
2019-04-14T00:43:20.469Z,21.5
2019-04-14T00:44:10.469Z,21.4
2019-04-14T00:45:00.444Z,21.3
2019-04-14T00:46:17.286Z,21.3
2019-04-14T00:48:38.641Z,21.1
2019-04-14T00:49:09.976Z,20.9
2019-04-14T00:50:01.538Z,20.9
2019-04-14T00:50:48.088Z,20.9
2019-04-14T00:51:46.969Z,20.8
2019-04-14T00:52:30.392Z,20.7
2019-04-14T00:53:22.486Z,20.7
2019-04-14T00:54:11.149Z,20.6
2019-04-14T00:55:00.960Z,20.6
2019-04-14T00:55:51.037Z,20.5
2019-04-14T00:56:39.493Z,20.4
2019-04-14T00:57:30.940Z,20.4
2019-04-14T00:58:19.171Z,20.3
2019-04-14T00:59:09.919Z,20.3
2019-04-14T00:59:59.313Z,20.2
2019-04-14T01:00:53.768Z,20.1
2019-04-14T01:01:41.316Z,20.1
2019-04-14T01:02:30.177Z,20.1
2019-04-14T01:03:22.475Z,20
2019-04-14T01:04:09.773Z,20
2019-04-14T01:04:58.690Z,19.9
2019-04-14T01:05:52.495Z,19.9
2019-04-14T01:06:42.495Z,19.8
2019-04-14T01:07:31.194Z,19.8
2019-04-14T01:08:21.313Z,19.7
2019-04-14T01:09:10.671Z,19.7
2019-04-14T01:10:00.155Z,19.6
2019-04-14T01:10:52.445Z,19.6
2019-04-14T01:11:42.611Z,19.5
2019-04-14T01:12:34.110Z,19.4
2019-04-14T01:13:29.390Z,19.4
2019-04-14T01:14:12.545Z,19.4
2019-04-14T01:15:03.510Z,19.4
2019-04-14T01:16:39.061Z,19.6
2019-04-14T01:17:01.164Z,21.1
2019-04-14T01:17:50.578Z,21.4
2019-04-14T01:18:41.435Z,21.9
2019-04-14T01:19:31.155Z,22.3
2019-04-14T01:20:21.604Z,22.6
2019-04-14T01:21:13.614Z,22.9
2019-04-14T01:22:03.093Z,23.2
2019-04-14T01:22:51.472Z,23.4
2019-04-14T01:23:43.932Z,23.6
2019-04-14T01:24:33.543Z,23.8
2019-04-14T01:25:22.184Z,24
2019-04-14T01:26:12.424Z,24.1
2019-04-14T01:27:00.011Z,24.3
2019-04-14T01:27:51.484Z,24.4
2019-04-14T01:28:40.219Z,24.4
2019-04-14T01:29:31.846Z,23.8
2019-04-14T01:30:24.042Z,23.3
2019-04-14T01:31:13.962Z,22.8
2019-04-14T01:32:02.213Z,22.6
2019-04-14T01:32:52.870Z,22.3
2019-04-14T01:33:42.978Z,22.1
2019-04-14T01:34:32.906Z,21.9
2019-04-14T01:35:23.252Z,21.8
2019-04-14T01:36:14.759Z,21.6
2019-04-14T01:37:03.433Z,21.5
2019-04-14T01:37:52.804Z,21.4
2019-04-14T01:38:42.715Z,21.4
2019-04-14T01:39:32.821Z,21.3
2019-04-14T01:40:23.499Z,21.3
2019-04-14T01:41:14.907Z,21.2
2019-04-14T01:42:03.305Z,21.1
2019-04-14T01:42:54.802Z,21
2019-04-14T01:43:43.738Z,21
2019-04-14T01:44:33.010Z,20.9
2019-04-14T01:45:23.682Z,20.9
2019-04-14T01:46:50.327Z,20.8
2019-04-14T01:47:15.879Z,20.7
2019-04-14T01:48:03.635Z,20.6
2019-04-14T01:48:54.263Z,20.6
2019-04-14T01:49:42.817Z,20.6
2019-04-14T01:50:34.397Z,20.4
2019-04-14T01:51:22.855Z,20.4
2019-04-14T01:52:12.384Z,20.3
2019-04-14T01:53:03.189Z,20.3
2019-04-14T01:53:53.637Z,20.2
2019-04-14T01:54:43.545Z,20.2
2019-04-14T01:55:31.370Z,20.1
2019-04-14T01:56:23.488Z,20.1
2019-04-14T01:57:15.277Z,20.1
2019-04-14T01:58:03.757Z,20
2019-04-14T01:58:51.762Z,19.9
2019-04-14T01:59:42.157Z,19.9
2019-04-14T02:00:30.184Z,19.9
2019-04-14T02:01:23.767Z,19.8
2019-04-14T02:02:14.544Z,19.8
2019-04-14T02:03:01.856Z,19.7
2019-04-14T02:03:51.993Z,19.6
2019-04-14T02:04:42.696Z,19.6
2019-04-14T02:05:31.900Z,19.6
2019-04-14T02:06:22.232Z,19.5
2019-04-14T02:07:15.037Z,19.4
2019-04-14T02:08:04.992Z,19.4
2019-04-14T02:08:55.183Z,19.3
2019-04-14T02:09:46.825Z,19.4
2019-04-14T02:10:34.982Z,19.8
2019-04-14T02:11:25.242Z,20.6
2019-04-14T02:12:14.851Z,21.4
2019-04-14T02:13:05.514Z,21.9
2019-04-14T02:13:55.576Z,22.3
2019-04-14T02:14:43.509Z,22.6
2019-04-14T02:15:35.417Z,22.9
2019-04-14T02:17:20.036Z,23.2
2019-04-14T02:17:42.383Z,23.6
2019-04-14T02:18:32.406Z,23.7
2019-04-14T02:19:24.684Z,23.9
2019-04-14T02:20:14.429Z,24.1
2019-04-14T02:21:04.716Z,24.3
2019-04-14T02:21:56.211Z,24.4
2019-04-14T02:22:44.046Z,24.2
2019-04-14T02:23:36.462Z,23.6
2019-04-14T02:24:26.297Z,23.1
2019-04-14T02:25:14.157Z,22.8
2019-04-14T02:26:07.418Z,22.5
2019-04-14T02:26:56.844Z,22.3
2019-04-14T02:27:45.026Z,22.1
2019-04-14T02:28:35.252Z,21.9
2019-04-14T02:29:23.796Z,21.8
2019-04-14T02:35:27.681Z,21.6
2019-04-14T02:50:04.378Z,20.9
2019-04-14T03:48:16.662Z,20.6
2019-04-14T03:56:24.518Z,19.6
2019-04-14T03:56:44.946Z,19.3
2019-04-14T03:57:41.855Z,19.4
2019-04-14T03:58:31.370Z,19.9
2019-04-14T03:59:13.758Z,20.8
2019-04-14T04:00:05.208Z,21.4
2019-04-14T04:00:56.129Z,21.9
2019-04-14T04:01:43.976Z,22.4
2019-04-14T04:02:34.394Z,22.7
2019-04-14T04:03:23.817Z,23
2019-04-14T04:04:16.619Z,23.3
2019-04-14T04:05:04.705Z,23.4
2019-04-14T04:05:58.519Z,23.6
2019-04-14T04:06:46.881Z,23.9
2019-04-14T04:07:36.962Z,24
2019-04-14T04:08:26.702Z,24.1
2019-04-14T04:09:17.092Z,24.3
2019-04-14T04:10:07.483Z,24.4
2019-04-14T04:10:55.892Z,23.9
2019-04-14T04:11:47.594Z,23.4
2019-04-14T04:12:37.788Z,22.9
2019-04-14T04:13:28.542Z,22.6
2019-04-14T04:14:16.177Z,22.3
2019-04-14T04:15:08.863Z,22.1
2019-04-14T04:15:56.100Z,21.9
2019-04-14T04:16:46.859Z,21.8
2019-04-14T04:17:36.765Z,21.6
2019-04-14T04:18:26.527Z,21.6
2019-04-14T04:19:34.357Z,21.4
2019-04-14T04:20:06.650Z,21.3
2019-04-14T04:20:58.724Z,21.3
2019-04-14T04:21:48.699Z,21.2
2019-04-14T04:23:27.544Z,21
2019-04-14T04:24:16.873Z,20.9
2019-04-14T04:25:07.569Z,20.9
2019-04-14T04:25:57.912Z,20.8
2019-04-14T04:26:47.707Z,20.8
2019-04-14T04:27:35.668Z,20.7
2019-04-14T04:28:26.159Z,20.7
2019-04-14T04:29:20.012Z,20.6
2019-04-14T04:30:08.548Z,20.6
2019-04-14T04:30:56.418Z,20.5
2019-04-14T04:31:44.666Z,20.4
2019-04-14T04:32:38.745Z,20.4
2019-04-14T04:33:28.945Z,20.4
2019-04-14T04:34:18.300Z,20.3
2019-04-14T04:35:09.033Z,20.2
2019-04-14T04:35:59.060Z,20.1
2019-04-14T04:36:46.796Z,20.1
2019-04-14T04:37:38.827Z,20.1
2019-04-14T04:38:29.526Z,20
2019-04-14T04:39:17.538Z,19.9
2019-04-14T04:40:09.256Z,19.9
2019-04-14T04:40:57.126Z,19.8
2019-04-14T04:41:49.931Z,19.8
2019-04-14T04:42:37.722Z,19.7
2019-04-14T04:43:28.131Z,19.6
2019-04-14T04:44:20.398Z,19.6
2019-04-14T04:45:08.645Z,19.6
2019-04-14T04:45:56.428Z,19.6
2019-04-14T04:46:50.420Z,19.4
2019-04-14T04:47:36.875Z,19.4
2019-04-14T04:48:30.605Z,19.4
2019-04-14T04:49:45.210Z,19.4
2019-04-14T04:50:11.188Z,19.3
2019-04-14T04:50:59.099Z,19.3
2019-04-14T04:51:49.370Z,19.8
2019-04-14T04:52:39.073Z,20.6
2019-04-14T04:53:30.852Z,21.4
2019-04-14T04:54:22.007Z,21.9
2019-04-14T04:55:09.897Z,22.4
2019-04-14T04:55:59.500Z,22.8
2019-04-14T04:56:47.812Z,23
2019-04-14T04:57:38.015Z,23.3
2019-04-14T04:58:28.853Z,23.4
2019-04-14T04:59:19.374Z,23.7
2019-04-14T05:00:13.435Z,23.9
2019-04-14T05:01:14.305Z,24.1
2019-04-14T05:01:49.643Z,24.3
2019-04-14T05:02:42.477Z,24.4
2019-04-14T05:03:32.276Z,24.2
2019-04-14T05:04:21.710Z,23.6
2019-04-14T05:05:10.329Z,23.1
2019-04-14T05:06:00.123Z,22.8
2019-04-14T05:06:51.027Z,22.4
2019-04-14T05:07:38.990Z,22.2
2019-04-14T05:08:30.445Z,22
2019-04-14T05:09:20.936Z,21.8
2019-04-14T05:10:11.532Z,21.7
2019-04-14T05:11:01.032Z,21.6
2019-04-14T05:11:55.122Z,21.5
2019-04-14T05:12:39.866Z,21.4
2019-04-14T05:13:29.687Z,21.3
2019-04-14T05:14:22.566Z,21.2
2019-04-14T05:16:04.083Z,21.1
2019-04-14T05:16:49.060Z,21
2019-04-14T05:17:43.553Z,20.9
2019-04-14T05:18:31.290Z,20.9
2019-04-14T05:19:56.123Z,20.8
2019-04-14T05:20:20.779Z,20.7
2019-04-14T05:21:08.851Z,20.7
2019-04-14T05:21:58.018Z,20.6
2019-04-14T05:22:50.678Z,20.6
2019-04-14T05:23:39.521Z,20.5
2019-04-14T05:24:27.339Z,20.5
2019-04-14T05:25:19.481Z,20.4
2019-04-14T05:26:08.906Z,20.3
2019-04-14T05:27:01.131Z,20.3
2019-04-14T05:27:49.369Z,20.3
2019-04-14T05:28:40.128Z,20.2
2019-04-14T05:29:29.639Z,20.1
2019-04-14T05:30:19.603Z,20.1
2019-04-14T05:31:10.475Z,20
2019-04-14T05:31:58.123Z,19.9
2019-04-14T05:32:46.529Z,19.9
2019-04-14T05:33:38.760Z,19.8
2019-04-14T05:34:28.813Z,19.8
2019-04-14T05:35:20.266Z,19.8
2019-04-14T05:36:08.520Z,19.7
2019-04-14T05:36:56.099Z,19.6
2019-04-14T05:37:48.562Z,19.6
2019-04-14T05:38:47.905Z,19.6
2019-04-14T05:39:31.253Z,19.5
2019-04-14T05:40:20.930Z,19.5
2019-04-14T05:41:10.045Z,19.4
2019-04-14T05:42:42.406Z,19.4
2019-04-14T05:43:05.011Z,19.3
2019-04-14T05:44:19.087Z,19.3
2019-04-14T05:44:45.277Z,20.2
2019-04-14T05:45:35.033Z,20.7
2019-04-14T05:46:23.604Z,21.4
2019-04-14T05:47:13.919Z,22
2019-04-14T05:48:06.055Z,22.4
2019-04-14T05:48:56.264Z,22.8
2019-04-14T05:50:12.159Z,23.1
2019-04-14T05:50:35.681Z,23.4
2019-04-14T05:51:33.092Z,23.5
2019-04-14T05:52:14.615Z,23.8
2019-04-14T05:53:04.829Z,23.9
2019-04-14T05:53:54.762Z,24.1
2019-04-14T05:54:45.229Z,24.3
2019-04-14T05:55:35.710Z,24.4
2019-04-14T05:56:25.191Z,24
2019-04-14T05:57:15.432Z,23.4
2019-04-14T05:58:04.109Z,22.9
2019-04-14T05:58:55.668Z,22.6
2019-04-14T05:59:46.095Z,22.3
2019-04-14T06:00:37.041Z,22.1
2019-04-14T06:01:26.968Z,21.9
2019-04-14T06:02:14.226Z,21.8
2019-04-14T06:03:05.863Z,21.6
2019-04-14T06:05:21.634Z,21.4
2019-04-14T06:05:57.917Z,21.3
2019-04-14T06:06:46.954Z,21.3
2019-04-14T06:07:36.982Z,21.2
2019-04-14T06:09:17.601Z,21.1
2019-04-14T06:10:07.131Z,20.9
2019-04-14T06:10:56.868Z,20.9
2019-04-14T06:11:47.836Z,20.8
2019-04-14T06:12:37.001Z,20.8
2019-04-14T06:13:27.926Z,20.7
2019-04-14T06:14:16.973Z,20.6
2019-04-14T06:15:07.835Z,20.6
2019-04-14T06:15:57.528Z,20.5
2019-04-14T06:16:48.413Z,20.4
2019-04-14T06:17:37.984Z,20.4
2019-04-14T06:18:26.953Z,20.4
2019-04-14T06:19:17.883Z,20.3
2019-04-14T06:20:08.239Z,20.3
2019-04-14T06:20:57.968Z,20.2
2019-04-14T06:21:48.053Z,20.1
2019-04-14T06:22:37.847Z,20.1
2019-04-14T06:23:28.442Z,20
2019-04-14T06:24:19.010Z,19.9
2019-04-14T06:25:08.452Z,19.9
2019-04-14T06:25:58.119Z,19.9
2019-04-14T06:26:48.767Z,19.8
2019-04-14T06:27:38.452Z,19.8
2019-04-14T06:28:28.542Z,19.7
2019-04-14T06:29:17.450Z,19.6
2019-04-14T06:30:08.653Z,19.6
2019-04-14T06:30:57.402Z,19.6
2019-04-14T06:31:48.745Z,19.6
2019-04-14T06:32:38.507Z,19.5
2019-04-14T06:33:26.951Z,19.4
2019-04-14T06:34:18.390Z,19.4
2019-04-14T06:35:09.282Z,19.4
2019-04-14T06:35:59.062Z,19.3
2019-04-14T06:36:49.360Z,19.3
2019-04-14T06:37:37.887Z,19.3
2019-04-14T06:38:28.575Z,19.2
2019-04-14T06:39:19.106Z,19.1
2019-04-14T06:40:08.397Z,19.1
2019-04-14T06:40:59.434Z,19.1
2019-04-14T06:41:48.996Z,19
2019-04-14T06:42:39.554Z,18.9
2019-04-14T06:43:29.046Z,18.9
2019-04-14T06:44:18.381Z,18.9
2019-04-14T06:45:09.522Z,18.9
2019-04-14T06:45:59.971Z,18.8
2019-04-14T06:46:50.961Z,18.8
2019-04-14T06:47:40.094Z,18.8
2019-04-14T06:50:10.121Z,18.6
2019-04-14T06:51:00.621Z,18.6
2019-04-14T06:51:49.932Z,18.6
2019-04-14T06:52:40.559Z,19.3
2019-04-14T06:53:31.151Z,20.3
2019-04-14T06:55:10.734Z,21.8
2019-04-14T06:56:02.589Z,22.3
2019-04-14T06:56:50.506Z,22.7
2019-04-14T06:57:40.396Z,23
2019-04-14T06:58:31.153Z,23.3
2019-04-14T06:59:20.721Z,23.5
2019-04-14T07:00:11.169Z,23.1
2019-04-14T07:01:00.250Z,22.6
2019-04-14T07:01:52.028Z,22.2
2019-04-14T07:02:41.468Z,21.9
2019-04-14T07:05:06.780Z,21.3
2019-04-14T07:05:57.067Z,21.2
2019-04-14T07:06:47.228Z,21.1
2019-04-14T07:07:35.567Z,20.9
2019-04-14T07:08:29.721Z,20.9
2019-04-14T07:09:16.883Z,20.8
2019-04-14T07:10:07.647Z,20.7
2019-04-14T07:10:57.088Z,20.6
2019-04-14T07:11:47.190Z,20.6
2019-04-14T07:12:37.840Z,20.5
2019-04-14T07:13:29.013Z,20.4
2019-04-14T07:14:16.385Z,20.4
2019-04-14T07:15:08.247Z,20.3
2019-04-14T07:15:58.315Z,20.3
2019-04-14T07:16:51.267Z,20.2
2019-04-14T07:17:38.476Z,20.2
2019-04-14T07:18:27.139Z,20.1
2019-04-14T07:19:18.316Z,20.1
2019-04-14T07:20:10.797Z,20
2019-04-14T07:20:58.544Z,19.9
2019-04-14T07:21:48.269Z,19.9
2019-04-14T07:22:38.597Z,19.9
2019-04-14T07:23:28.039Z,19.8
2019-04-14T07:24:18.102Z,19.8
2019-04-14T07:25:07.994Z,19.8
2019-04-14T07:25:58.451Z,19.7
2019-04-14T07:26:49.377Z,19.6
2019-04-14T07:27:37.924Z,19.6
2019-04-14T07:28:28.776Z,19.5
2019-04-14T07:29:22.151Z,19.5
2019-04-14T07:30:09.146Z,19.4
2019-04-14T07:30:59.149Z,19.4
2019-04-14T07:31:48.714Z,19.4
2019-04-14T07:32:38.783Z,19.3
2019-04-14T07:33:28.474Z,19.3
2019-04-14T07:34:18.879Z,19.2
2019-04-14T07:35:10.036Z,19.2
2019-04-14T07:35:59.754Z,19.1
2019-04-14T07:36:49.271Z,19.1
2019-04-14T07:37:39.098Z,19
2019-04-14T07:38:29.978Z,19
2019-04-14T07:39:20.084Z,18.9
2019-04-14T07:40:08.596Z,18.9
2019-04-14T07:40:59.933Z,18.9
2019-04-14T07:41:48.888Z,18.8
2019-04-14T07:42:40.266Z,18.8
2019-04-14T07:43:29.026Z,18.8
2019-04-14T07:44:23.006Z,18.8
2019-04-14T07:45:09.193Z,18.8
2019-04-14T07:46:00.430Z,19.3
2019-04-14T07:46:50.718Z,20.3
2019-04-14T07:47:40.691Z,21.2
2019-04-14T07:48:30.745Z,21.9
2019-04-14T07:49:19.950Z,22.4
2019-04-14T07:50:23.178Z,22.8
2019-04-14T07:51:00.905Z,23.1
2019-04-14T07:51:50.535Z,23.3
2019-04-14T07:52:40.367Z,23.6
2019-04-14T07:53:29.815Z,23.1
2019-04-14T07:54:20.395Z,22.6
2019-04-14T07:55:10.710Z,22.2
2019-04-14T07:56:01.064Z,21.9
2019-04-14T07:56:50.050Z,21.6
2019-04-14T07:57:40.562Z,21.4
2019-04-14T07:58:31.468Z,21.3
2019-04-14T08:00:10.494Z,21
2019-04-14T08:01:01.143Z,20.9
2019-04-14T08:01:51.415Z,20.8
2019-04-14T08:02:40.399Z,20.8
2019-04-14T08:03:31.377Z,20.7
2019-04-14T08:04:21.165Z,20.6
2019-04-14T08:05:10.945Z,20.6
2019-04-14T08:06:01.189Z,20.5
2019-04-14T08:06:52.182Z,20.4
2019-04-14T08:07:41.037Z,20.4
2019-04-14T08:08:31.637Z,20.3
2019-04-14T08:09:22.012Z,20.3
2019-04-14T08:10:11.321Z,20.2
2019-04-14T08:11:00.784Z,20.2
2019-04-14T08:11:51.511Z,20.1
2019-04-14T08:12:42.742Z,20.1
2019-04-14T08:13:31.816Z,20
2019-04-14T08:14:21.859Z,19.9
2019-04-14T08:15:11.690Z,19.9
2019-04-14T08:16:00.986Z,19.9
2019-04-14T08:16:53.177Z,19.8
2019-04-14T08:17:40.224Z,19.8
2019-04-14T08:18:32.657Z,19.7
2019-04-14T08:19:22.771Z,19.6
2019-04-14T08:20:12.271Z,19.6
2019-04-14T08:21:02.915Z,19.6
2019-04-14T08:21:52.376Z,19.5
2019-04-14T08:22:42.175Z,19.5
2019-04-14T08:23:32.711Z,19.4
2019-04-14T08:24:21.724Z,19.4
2019-04-14T08:25:12.298Z,19.3
2019-04-14T08:26:03.427Z,19.3
2019-04-14T08:26:52.331Z,19.3
2019-04-14T08:27:43.828Z,19.2
2019-04-14T08:28:33.348Z,19.2
2019-04-14T08:29:22.968Z,19.1
2019-04-14T08:30:13.249Z,19.1
2019-04-14T08:31:03.643Z,19
2019-04-14T08:31:53.332Z,19
2019-04-14T08:32:43.311Z,18.9
2019-04-14T08:33:33.791Z,18.9
2019-04-14T08:34:24.108Z,18.9
2019-04-14T08:35:13.005Z,18.9
2019-04-14T08:36:04.205Z,18.8
2019-04-14T08:36:53.215Z,18.8
2019-04-14T08:37:43.511Z,18.8
2019-04-14T08:38:33.824Z,19
2019-04-14T08:39:24.138Z,19.9
2019-04-14T08:40:13.970Z,20.9
2019-04-14T08:41:03.470Z,21.6
2019-04-14T08:41:53.447Z,22.3
2019-04-14T08:42:44.117Z,22.7
2019-04-14T08:43:33.649Z,23.1
2019-04-14T08:44:23.978Z,23.3
2019-04-14T08:45:14.902Z,23.6
2019-04-14T08:46:03.855Z,23.6
2019-04-14T08:46:54.439Z,23.1
2019-04-14T08:47:44.310Z,22.6
2019-04-14T08:48:33.977Z,22.2
2019-04-14T08:49:25.177Z,21.9
2019-04-14T08:50:14.939Z,21.6
2019-04-14T08:51:04.715Z,21.4
2019-04-14T08:51:55.114Z,21.3
2019-04-14T08:53:34.314Z,21.1
2019-04-14T08:54:24.978Z,20.9
2019-04-14T08:55:15.619Z,20.9
2019-04-14T08:56:05.094Z,20.8
2019-04-14T08:56:54.918Z,20.7
2019-04-14T08:57:44.719Z,20.7
2019-04-14T08:58:34.205Z,20.6
2019-04-14T08:59:24.555Z,20.5
2019-04-14T09:00:14.904Z,20.4
2019-04-14T09:01:05.221Z,20.4
2019-04-14T09:01:54.824Z,20.3
2019-04-14T09:02:43.968Z,20.3
2019-04-14T09:03:35.623Z,20.3
2019-04-14T09:04:24.873Z,20.2
2019-04-14T09:05:15.331Z,20.1
2019-04-14T09:06:04.799Z,20.1
2019-04-14T09:06:56.168Z,20.1
2019-04-14T09:07:46.206Z,19.9
2019-04-14T09:08:35.986Z,19.9
2019-04-14T09:09:25.911Z,19.9
2019-04-14T09:10:16.276Z,19.9
2019-04-14T09:11:06.421Z,19.8
2019-04-14T09:11:56.254Z,19.8
2019-04-14T09:12:46.314Z,19.7
2019-04-14T09:13:36.171Z,19.6
2019-04-14T09:14:27.085Z,19.6
2019-04-14T09:15:16.397Z,19.6
2019-04-14T09:16:05.874Z,19.5
2019-04-14T09:16:56.906Z,19.4
2019-04-14T09:17:46.461Z,19.4
2019-04-14T09:18:36.573Z,19.4
2019-04-14T09:19:26.901Z,19.3
2019-04-14T09:20:15.688Z,19.3
2019-04-14T09:21:05.378Z,19.3
2019-04-14T09:21:57.805Z,19.2
2019-04-14T09:22:47.098Z,19.1
2019-04-14T09:23:37.140Z,19.1
2019-04-14T09:24:26.199Z,19.1
2019-04-14T09:25:17.230Z,19
2019-04-14T09:26:07.315Z,19
2019-04-14T09:26:57.327Z,18.9
2019-04-14T09:27:47.147Z,18.9
2019-04-14T09:28:38.028Z,18.9
2019-04-14T09:29:27.372Z,18.8
2019-04-14T09:30:17.857Z,18.8
2019-04-14T09:31:07.167Z,18.8
2019-04-14T09:31:58.535Z,19.1
2019-04-14T09:32:48.084Z,20
2019-04-14T09:33:38.455Z,20.9
2019-04-14T09:34:28.159Z,21.8
2019-04-14T09:35:17.477Z,22.3
2019-04-14T09:36:07.484Z,22.7
2019-04-14T09:36:57.849Z,23
2019-04-14T09:37:48.252Z,23.3
2019-04-14T09:38:38.477Z,23.5
2019-04-14T09:39:28.394Z,23.7
2019-04-14T09:40:17.730Z,23.4
2019-04-14T09:41:07.844Z,22.9
2019-04-14T09:41:58.723Z,22.4
2019-04-14T09:42:47.979Z,22.1
2019-04-14T09:43:38.544Z,21.8
2019-04-14T09:44:28.374Z,21.6
2019-04-14T09:45:18.419Z,21.4
2019-04-14T09:46:09.036Z,21.3
2019-04-14T09:47:48.974Z,21
2019-04-14T09:48:38.446Z,20.9
2019-04-14T09:49:28.481Z,20.8
2019-04-14T09:50:17.966Z,20.8
2019-04-14T09:51:13.308Z,20.7
2019-04-14T09:51:59.174Z,20.6
2019-04-14T09:52:49.012Z,20.6
2019-04-14T09:53:39.016Z,20.5
2019-04-14T09:54:29.623Z,20.4
2019-04-14T09:55:20.041Z,20.4
2019-04-14T09:56:09.858Z,20.4
2019-04-14T09:56:59.611Z,20.3
2019-04-14T09:57:49.599Z,20.3
2019-04-14T09:58:39.655Z,20.2
2019-04-14T09:59:30.015Z,20.1
2019-04-14T10:00:19.000Z,20.1
2019-04-14T10:01:12.983Z,20.1
2019-04-14T10:01:59.876Z,20
2019-04-14T10:02:49.493Z,19.9
2019-04-14T10:03:40.788Z,19.9
2019-04-14T10:06:07.590Z,19.8
2019-04-14T10:06:57.718Z,19.7
2019-04-14T10:07:47.618Z,19.6
2019-04-14T10:08:36.190Z,19.6
2019-04-14T10:09:27.775Z,19.6
2019-04-14T10:10:18.353Z,19.6
2019-04-14T10:11:06.990Z,19.5
2019-04-14T10:12:04.668Z,19.4
2019-04-14T10:12:47.987Z,19.4
2019-04-14T10:13:37.397Z,19.4
2019-04-14T10:14:26.647Z,19.3
2019-04-14T10:15:17.283Z,19.3
2019-04-14T10:16:07.077Z,19.3
2019-04-14T10:16:57.927Z,19.2
2019-04-14T10:17:46.935Z,19.1
2019-04-14T10:18:37.237Z,19.1
2019-04-14T10:19:26.181Z,19.1
2019-04-14T10:20:18.147Z,19
2019-04-14T10:21:22.007Z,18.9
2019-04-14T10:21:57.762Z,18.9
2019-04-14T10:22:47.266Z,18.9
2019-04-14T10:23:41.409Z,18.9
2019-04-14T10:24:28.009Z,18.8
2019-04-14T10:25:18.009Z,18.8
2019-04-14T10:26:08.369Z,19.1
2019-04-14T10:26:57.255Z,20
2019-04-14T10:27:48.229Z,20.9
2019-04-14T10:28:38.477Z,21.7
2019-04-14T10:29:27.751Z,22.3
2019-04-14T10:30:18.673Z,22.6
2019-04-14T10:31:08.692Z,22.9
2019-04-14T10:31:59.006Z,23.2
2019-04-14T10:32:47.982Z,23.4
2019-04-14T10:33:38.903Z,23.7
2019-04-14T10:34:28.433Z,23.8
2019-04-14T10:35:18.763Z,23.1
2019-04-14T10:36:08.897Z,22.6
2019-04-14T10:36:58.368Z,22.2
2019-04-14T10:37:48.289Z,21.9
2019-04-14T10:38:39.216Z,21.7
2019-04-14T10:39:26.871Z,21.4
2019-04-14T10:40:18.356Z,21.3
2019-04-14T10:41:09.768Z,21.2
2019-04-14T10:41:58.993Z,21.1
2019-04-14T10:42:50.084Z,20.9
2019-04-14T10:43:39.891Z,20.9
2019-04-14T10:44:28.875Z,20.8
2019-04-14T10:45:22.517Z,20.8
2019-04-14T10:46:09.556Z,20.7
2019-04-14T10:46:59.590Z,20.6
2019-04-14T10:47:49.389Z,20.6
2019-04-14T10:48:39.530Z,20.5
2019-04-14T10:49:29.262Z,20.4
2019-04-14T10:50:33.455Z,20.4
2019-04-14T10:51:10.719Z,20.3
2019-04-14T10:52:00.521Z,20.3
2019-04-14T10:52:49.732Z,20.3
2019-04-14T10:53:40.691Z,20.2
2019-04-14T10:54:30.869Z,20.1
2019-04-14T10:55:20.523Z,20.1
2019-04-14T10:56:11.084Z,20
2019-04-14T10:57:04.124Z,20
2019-04-14T10:57:50.726Z,19.9
2019-04-14T10:58:40.780Z,19.9
2019-04-14T10:59:31.344Z,19.8
2019-04-14T11:00:20.616Z,19.8
2019-04-14T11:01:10.684Z,19.8
2019-04-14T11:02:00.819Z,19.7
2019-04-14T11:02:50.040Z,19.6
2019-04-14T11:03:40.140Z,19.6
2019-04-14T11:04:30.065Z,19.6
2019-04-14T11:05:21.284Z,19.5
2019-04-14T11:06:09.943Z,19.4
2019-04-14T11:07:00.836Z,19.4
2019-04-14T11:07:50.959Z,19.4
2019-04-14T11:08:40.665Z,19.3
2019-04-14T11:09:30.439Z,19.3
2019-04-14T11:10:20.267Z,19.3
2019-04-14T11:11:11.964Z,19.2
2019-04-14T11:11:59.870Z,19.1
2019-04-14T11:12:51.086Z,19.1
2019-04-14T11:13:41.316Z,19.1
2019-04-14T11:14:30.806Z,19
2019-04-14T11:15:22.813Z,19
2019-04-14T11:16:12.012Z,18.9
2019-04-14T11:17:01.734Z,18.9
2019-04-14T11:17:52.116Z,18.9
2019-04-14T11:18:41.433Z,18.8
2019-04-14T11:19:31.472Z,18.8
2019-04-14T11:20:21.726Z,18.8
2019-04-14T11:21:12.941Z,19.3
2019-04-14T11:22:02.382Z,20.3
2019-04-14T11:23:06.061Z,21.2
2019-04-14T11:23:42.236Z,22.1
2019-04-14T11:24:32.448Z,22.4
2019-04-14T11:25:22.623Z,22.8
2019-04-14T11:26:12.236Z,23.2
2019-04-14T11:27:03.353Z,23.4
2019-04-14T11:27:53.663Z,23.7
2019-04-14T11:28:42.931Z,23.8
2019-04-14T11:29:33.788Z,23.3
2019-04-14T11:30:23.541Z,22.8
2019-04-14T11:31:12.803Z,22.3
2019-04-14T11:32:03.190Z,22
2019-04-14T11:32:52.700Z,21.8
2019-04-14T11:33:42.227Z,21.5
2019-04-14T11:34:33.347Z,21.4
2019-04-14T11:35:25.051Z,21.3
2019-04-14T11:37:03.621Z,21
2019-04-14T11:37:53.415Z,20.9
2019-04-14T11:38:43.750Z,20.9
2019-04-14T11:39:33.825Z,20.8
2019-04-14T11:40:23.442Z,20.8
2019-04-14T11:41:14.179Z,20.7
2019-04-14T11:42:04.297Z,20.6
2019-04-14T11:43:01.494Z,20.6
2019-04-14T11:43:44.167Z,20.5
2019-04-14T11:44:34.187Z,20.5
2019-04-14T11:45:24.719Z,20.4
2019-04-14T11:46:15.170Z,20.4
2019-04-14T11:47:03.844Z,20.3
2019-04-14T11:47:54.635Z,20.3
2019-04-14T11:48:44.066Z,20.2
2019-04-14T11:49:34.199Z,20.2
2019-04-14T11:50:24.064Z,20.1
2019-04-14T11:51:13.784Z,20.1
2019-04-14T11:52:04.452Z,20
2019-04-14T11:52:54.134Z,19.9
2019-04-14T11:53:45.554Z,19.9
2019-04-14T11:54:35.344Z,19.9
2019-04-14T11:55:23.551Z,19.8
2019-04-14T11:56:15.101Z,19.8
2019-04-14T11:57:04.736Z,19.8
2019-04-14T11:57:54.706Z,19.7
2019-04-14T11:58:45.435Z,19.6
2019-04-14T11:59:34.636Z,19.6
2019-04-14T12:00:25.674Z,19.6
2019-04-14T12:01:14.725Z,19.5
2019-04-14T12:02:05.792Z,19.4
2019-04-14T12:02:55.471Z,19.4
2019-04-14T12:03:45.528Z,19.4
2019-04-14T12:06:36.375Z,19.3
2019-04-14T12:07:12.978Z,19.2
2019-04-14T12:08:02.194Z,19.1
2019-04-14T12:08:36.313Z,19.1
2019-04-14T12:09:27.256Z,19.1
2019-04-14T12:11:07.622Z,19
2019-04-14T12:11:57.963Z,19
2019-04-14T12:12:47.046Z,18.9
2019-04-14T12:13:36.558Z,18.9
2019-04-14T12:14:43.340Z,18.9
2019-04-14T12:15:25.521Z,19
2019-04-14T12:16:07.563Z,19.7
2019-04-14T12:16:58.198Z,20.6
2019-04-14T12:17:48.045Z,21.4
2019-04-14T12:19:43.171Z,22.8
2019-04-14T12:20:17.448Z,23.1
2019-04-14T12:21:08.487Z,23.3
2019-04-14T12:22:12.055Z,23.4
2019-04-14T12:22:47.727Z,23.8
2019-04-14T12:23:38.090Z,23.9
2019-04-14T12:24:28.625Z,23.3
2019-04-14T12:25:19.310Z,22.8
2019-04-14T12:26:28.560Z,22.4
2019-04-14T12:26:58.692Z,21.9
2019-04-14T12:27:57.853Z,21.8
2019-04-14T12:28:49.310Z,21.6
2019-04-14T12:29:54.386Z,21.4
2019-04-14T12:30:31.206Z,21.2
2019-04-14T12:31:20.057Z,21.2
2019-04-14T12:32:19.750Z,21.1
2019-04-14T12:32:48.944Z,21
2019-04-14T12:33:54.452Z,20.9
2019-04-14T12:34:43.072Z,20.9
2019-04-14T12:35:34.226Z,20.8
2019-04-14T12:36:10.026Z,20.7
2019-04-14T12:37:00.064Z,20.7
2019-04-14T12:37:49.571Z,20.6
2019-04-14T12:38:39.219Z,20.6
2019-04-14T12:39:28.974Z,20.4
2019-04-14T12:40:17.974Z,20.4
2019-04-14T12:41:48.196Z,20.4
2019-04-14T12:42:00.193Z,20.3
2019-04-14T12:42:49.216Z,20.3
2019-04-14T12:43:39.496Z,20.3
2019-04-14T12:44:29.624Z,20.2
2019-04-14T12:45:20.967Z,20.2
2019-04-14T12:46:12.288Z,20.1
2019-04-14T12:46:59.964Z,20.1
2019-04-14T12:47:50.201Z,20
2019-04-14T12:48:39.641Z,19.9
2019-04-14T12:49:44.401Z,19.9
2019-04-14T12:50:20.286Z,19.8
2019-04-14T12:51:10.020Z,19.8